createdAt,value
2018-10-11T00:02:12.967Z,36.97
2018-10-11T00:04:42.225Z,35.73
2018-10-11T00:07:11.017Z,38.23
2018-10-11T00:09:39.708Z,35.33
2018-10-11T00:12:08.990Z,38.27
2018-10-11T00:14:37.659Z,37.57
2018-10-11T00:17:08.270Z,37.77
2018-10-11T00:19:37.011Z,39.03
2018-10-11T00:22:05.667Z,39.73
2018-10-11T00:24:34.280Z,38.40
2018-10-11T00:27:02.943Z,37.40
2018-10-11T00:29:31.740Z,39.40
2018-10-11T00:32:00.400Z,37.10
2018-10-11T00:34:29.066Z,38.90
2018-10-11T00:36:58.058Z,41.50
2018-10-11T00:39:26.679Z,39.90
2018-10-11T00:41:55.519Z,42.73
2018-10-11T00:44:24.155Z,38.40
2018-10-11T00:46:53.015Z,38.17
2018-10-11T00:49:22.689Z,39.17
2018-10-11T00:51:52.468Z,40.10
2018-10-11T00:54:21.819Z,39.97
2018-10-11T00:56:50.622Z,40.83
2018-10-11T00:59:19.290Z,41.07
2018-10-11T01:01:48.081Z,40.23
2018-10-11T01:04:17.122Z,40.20
2018-10-11T01:06:45.915Z,40.00
2018-10-11T01:09:14.564Z,41.30
2018-10-11T01:11:43.583Z,38.70
2018-10-11T01:14:12.195Z,39.97
2018-10-11T01:16:41.055Z,41.37
2018-10-11T01:19:10.076Z,41.00
2018-10-11T01:21:38.959Z,40.13
2018-10-11T01:24:07.725Z,39.00
2018-10-11T01:26:36.410Z,39.87
2018-10-11T01:29:05.325Z,41.50
2018-10-11T01:31:34.015Z,42.30
2018-10-11T01:34:02.647Z,40.10
2018-10-11T01:36:31.307Z,40.93
2018-10-11T01:38:59.986Z,40.67
2018-10-11T01:41:28.731Z,41.90
2018-10-11T01:43:57.389Z,43.63
2018-10-11T01:46:26.006Z,43.60
2018-10-11T01:48:54.639Z,40.60
2018-10-11T01:51:24.073Z,42.93
2018-10-11T01:53:52.788Z,41.27
2018-10-11T01:56:21.882Z,42.57
2018-10-11T01:58:50.940Z,42.03
2018-10-11T02:01:19.593Z,45.23
2018-10-11T02:03:48.275Z,42.33
2018-10-11T02:06:16.996Z,41.47
2018-10-11T02:08:45.649Z,42.90
2018-10-11T02:11:14.275Z,41.80
2018-10-11T02:13:42.933Z,42.17
2018-10-11T02:16:11.800Z,43.70
2018-10-11T02:18:40.588Z,44.30
2018-10-11T02:21:09.239Z,42.60
2018-10-11T02:23:37.904Z,43.17
2018-10-11T02:26:07.056Z,45.90
2018-10-11T02:28:36.254Z,42.30
2018-10-11T02:31:05.027Z,43.23
2018-10-11T02:33:33.819Z,43.23
2018-10-11T02:36:02.471Z,45.03
2018-10-11T02:38:32.355Z,44.47
2018-10-11T02:41:01.167Z,45.33
2018-10-11T02:43:31.540Z,42.13
2018-10-11T02:46:02.858Z,45.20
2018-10-11T02:48:35.294Z,42.00
2018-10-11T02:51:03.960Z,42.80
2018-10-11T02:53:32.669Z,42.73
2018-10-11T02:56:01.293Z,44.87
2018-10-11T02:58:41.539Z,44.07
2018-10-11T03:01:10.220Z,45.83
2018-10-11T03:03:38.988Z,45.13
2018-10-11T03:06:08.209Z,48.67
2018-10-11T03:08:37.720Z,45.43
2018-10-11T03:11:06.641Z,43.57
2018-10-11T03:13:35.359Z,45.97
2018-10-11T03:16:04.076Z,45.23
2018-10-11T03:18:32.785Z,45.10
2018-10-11T03:21:01.547Z,45.33
2018-10-11T03:23:30.219Z,44.53
2018-10-11T03:25:58.861Z,44.90
2018-10-11T03:28:27.479Z,46.00
2018-10-11T03:30:56.153Z,46.43
2018-10-11T03:33:24.823Z,46.33
2018-10-11T03:35:53.483Z,44.67
2018-10-11T03:38:22.191Z,44.90
2018-10-11T03:40:50.835Z,49.23
2018-10-11T03:43:19.484Z,45.87
2018-10-11T03:45:48.178Z,44.37
2018-10-11T03:48:16.953Z,42.67
2018-10-11T03:50:45.650Z,43.63
2018-10-11T03:53:14.275Z,45.00
2018-10-11T03:55:42.955Z,46.77
2018-10-11T03:58:11.603Z,44.23
2018-10-11T04:00:40.258Z,45.70
2018-10-11T04:03:08.894Z,41.77
2018-10-11T04:05:37.568Z,44.30
2018-10-11T04:08:06.267Z,43.30
2018-10-11T04:10:34.947Z,46.13
2018-10-11T04:13:03.702Z,48.63
2018-10-11T04:15:32.429Z,43.77
2018-10-11T04:18:01.086Z,44.10
2018-10-11T04:20:29.700Z,44.40
2018-10-11T04:22:58.383Z,46.83
2018-10-11T04:25:27.679Z,44.50
2018-10-11T04:27:56.463Z,44.70
2018-10-11T04:30:25.525Z,46.57
2018-10-11T04:32:54.331Z,45.03
2018-10-11T04:35:23.001Z,45.40
2018-10-11T04:37:51.672Z,45.17
2018-10-11T04:40:20.361Z,42.83
2018-10-11T04:42:49.150Z,46.27
2018-10-11T04:45:17.688Z,42.27
2018-10-11T04:47:46.308Z,44.17
2018-10-11T04:50:15.014Z,44.17
2018-10-11T04:52:43.617Z,44.00
2018-10-11T04:55:12.248Z,45.87
2018-10-11T04:57:42.911Z,42.60
2018-10-11T05:00:11.670Z,48.57
2018-10-11T05:02:40.282Z,43.93
2018-10-11T05:05:08.940Z,44.07
2018-10-11T05:07:37.576Z,46.43
2018-10-11T05:10:06.505Z,47.40
2018-10-11T05:12:35.112Z,44.37
2018-10-11T05:15:03.855Z,42.80
2018-10-11T05:17:33.098Z,47.17
2018-10-11T05:20:01.796Z,45.10
2018-10-11T05:22:30.459Z,44.70
2018-10-11T05:24:59.251Z,43.63
2018-10-11T05:27:27.941Z,47.53
2018-10-11T05:29:56.849Z,45.40
2018-10-11T05:32:25.933Z,46.23
2018-10-11T05:34:54.607Z,45.23
2018-10-11T05:37:23.317Z,47.10
2018-10-11T05:39:52.052Z,47.37
2018-10-11T05:42:20.755Z,45.43
2018-10-11T05:44:49.609Z,46.40
2018-10-11T05:47:18.560Z,45.70
2018-10-11T05:49:47.191Z,47.97
2018-10-11T05:52:15.833Z,45.93
2018-10-11T05:54:44.460Z,48.93
2018-10-11T05:57:13.130Z,47.20
2018-10-11T05:59:42.951Z,47.33
2018-10-11T06:02:11.959Z,46.27
2018-10-11T06:04:41.143Z,46.43
2018-10-11T06:07:10.147Z,46.30
2018-10-11T06:09:38.984Z,45.47
2018-10-11T06:12:07.663Z,45.93
2018-10-11T06:14:36.584Z,46.60
2018-10-11T06:17:05.223Z,47.60
2018-10-11T06:19:33.908Z,44.57
2018-10-11T06:22:02.571Z,47.57
2018-10-11T06:24:31.208Z,43.30
2018-10-11T06:26:59.889Z,44.03
2018-10-11T06:29:28.969Z,47.10
2018-10-11T06:31:57.902Z,44.47
2018-10-11T06:34:26.562Z,43.43
2018-10-11T06:36:55.239Z,42.63
2018-10-11T06:39:23.889Z,43.63
2018-10-11T06:41:52.647Z,42.07
2018-10-11T06:44:21.274Z,41.40
2018-10-11T06:46:49.936Z,41.80
2018-10-11T06:49:18.600Z,41.67
2018-10-11T06:51:47.355Z,43.33
2018-10-11T06:54:16.085Z,42.63
2018-10-11T06:56:44.708Z,42.20
2018-10-11T06:59:13.483Z,42.10
2018-10-11T07:01:42.258Z,37.90
2018-10-11T07:04:10.868Z,41.17
2018-10-11T07:06:39.558Z,40.07
2018-10-11T07:09:08.695Z,37.93
2018-10-11T07:11:37.431Z,38.63
2018-10-11T07:14:06.181Z,36.20
2018-10-11T07:16:34.893Z,37.07
2018-10-11T07:19:03.811Z,36.30
2018-10-11T07:21:33.883Z,37.00
2018-10-11T07:24:02.721Z,37.87
2018-10-11T07:26:31.701Z,38.13
2018-10-11T07:29:00.588Z,36.70
2018-10-11T07:31:29.394Z,36.80
2018-10-11T07:33:58.063Z,38.40
2018-10-11T07:36:26.766Z,37.73
2018-10-11T07:38:55.415Z,36.60
2018-10-11T07:41:24.139Z,37.57
2018-10-11T07:43:54.932Z,38.33
2018-10-11T07:46:24.087Z,35.17
2018-10-11T07:48:53.561Z,37.87
2018-10-11T07:51:22.265Z,36.67
2018-10-11T07:53:51.708Z,36.03
2018-10-11T07:56:20.316Z,38.93
2018-10-11T07:58:49.315Z,35.67
2018-10-11T08:01:18.348Z,35.40
2018-10-11T08:03:46.928Z,36.87
2018-10-11T08:06:15.667Z,34.23
2018-10-11T08:08:44.488Z,36.53
2018-10-11T08:11:13.258Z,34.00
2018-10-11T08:13:41.932Z,35.03
2018-10-11T08:16:11.601Z,33.93
2018-10-11T08:18:40.317Z,32.63
2018-10-11T08:21:08.890Z,31.03
2018-10-11T08:23:37.601Z,32.50
2018-10-11T08:26:06.824Z,33.57
2018-10-11T08:28:35.394Z,31.37
2018-10-11T08:31:04.303Z,32.13
2018-10-11T08:33:32.963Z,30.83
2018-10-11T08:36:01.904Z,31.20
2018-10-11T08:38:30.619Z,33.07
2018-10-11T08:40:59.248Z,29.13
2018-10-11T08:43:27.998Z,31.97
2018-10-11T08:45:56.628Z,30.40
2018-10-11T08:48:25.328Z,28.60
2018-10-11T08:50:54.102Z,29.87
2018-10-11T08:53:22.738Z,30.70
2018-10-11T08:55:51.352Z,28.90
2018-10-11T08:58:20.128Z,30.30
2018-10-11T09:00:48.862Z,29.57
2018-10-11T09:03:17.810Z,27.73
2018-10-11T09:05:46.407Z,27.90
2018-10-11T09:08:15.136Z,29.07
2018-10-11T09:10:43.822Z,28.63
2018-10-11T09:13:12.657Z,30.30
2018-10-11T09:15:42.095Z,28.03
2018-10-11T09:18:10.792Z,26.93
2018-10-11T09:20:39.459Z,27.70
2018-10-11T09:23:08.095Z,26.10
2018-10-11T09:25:36.924Z,26.10
2018-10-11T09:28:05.747Z,27.73
2018-10-11T09:30:34.429Z,28.80
2018-10-11T09:33:03.185Z,24.07
2018-10-11T09:35:31.903Z,26.30
2018-10-11T09:38:00.589Z,25.07
2018-10-11T09:40:29.266Z,25.40
2018-10-11T09:42:57.942Z,25.47
2018-10-11T09:45:26.639Z,25.43
2018-10-11T09:47:55.796Z,23.27
2018-10-11T09:50:24.439Z,23.20
2018-10-11T09:52:57.078Z,23.50
2018-10-11T09:55:27.439Z,23.80
2018-10-11T09:57:56.135Z,21.90
2018-10-11T10:00:30.036Z,23.70
2018-10-11T10:02:58.924Z,24.97
2018-10-11T10:05:27.594Z,24.00
2018-10-11T10:07:56.330Z,21.40
2018-10-11T10:10:25.067Z,23.10
2018-10-11T10:12:53.703Z,20.80
2018-10-11T10:15:22.716Z,23.60
2018-10-11T10:17:51.420Z,24.13
2018-10-11T10:20:20.374Z,20.20
2018-10-11T10:22:49.057Z,21.47
2018-10-11T10:25:17.693Z,22.80
2018-10-11T10:27:46.361Z,22.00
2018-10-11T10:30:20.495Z,21.43
2018-10-11T10:32:49.634Z,21.80
2018-10-11T10:35:18.299Z,21.03
2018-10-11T10:37:47.067Z,21.30
2018-10-11T10:40:15.723Z,22.43
2018-10-11T10:42:44.392Z,20.07
2018-10-11T10:45:13.249Z,20.60
2018-10-11T10:47:42.000Z,18.60
2018-10-11T10:50:10.677Z,18.90
2018-10-11T10:52:40.056Z,20.83
2018-10-11T10:55:08.715Z,18.37
2018-10-11T10:57:37.590Z,18.27
2018-10-11T11:00:08.419Z,18.67
2018-10-11T11:02:37.176Z,17.03
2018-10-11T11:05:06.283Z,19.07
2018-10-11T11:07:35.031Z,16.93
2018-10-11T11:10:03.851Z,18.93
2018-10-11T11:12:32.683Z,17.77
2018-10-11T11:15:01.411Z,18.47
2018-10-11T11:17:30.623Z,18.80
2018-10-11T11:19:59.480Z,18.93
2018-10-11T11:22:28.201Z,18.27
2018-10-11T11:24:56.863Z,17.00
2018-10-11T11:27:25.908Z,17.77
2018-10-11T11:29:54.584Z,17.43
2018-10-11T11:32:23.263Z,19.57
2018-10-11T11:34:52.230Z,18.53
2018-10-11T11:37:21.148Z,17.37
2018-10-11T11:39:50.104Z,16.93
2018-10-11T11:42:18.841Z,18.00
2018-10-11T11:44:47.531Z,18.10
2018-10-11T11:47:16.811Z,18.13
2018-10-11T11:49:45.451Z,17.43
2018-10-11T11:52:14.214Z,17.13
2018-10-11T11:54:42.865Z,17.87
2018-10-11T11:57:11.683Z,20.63
2018-10-11T11:59:40.428Z,17.60
2018-10-11T12:02:09.154Z,18.20
2018-10-11T12:04:38.455Z,17.87
2018-10-11T12:07:07.267Z,17.43
2018-10-11T12:09:36.142Z,18.60
2018-10-11T12:12:04.780Z,17.53
2018-10-11T12:14:33.396Z,17.33
2018-10-11T12:17:02.111Z,16.53
2018-10-11T12:19:30.802Z,17.43
2018-10-11T12:21:59.551Z,20.47
2018-10-11T12:24:28.375Z,18.83
2018-10-11T12:26:57.059Z,18.23
2018-10-11T12:29:25.705Z,18.07
2018-10-11T12:31:54.388Z,17.97
2018-10-11T12:34:23.269Z,17.13
2018-10-11T12:36:51.971Z,17.60
2018-10-11T12:39:20.652Z,17.87
2018-10-11T12:41:49.326Z,19.00
2018-10-11T12:44:20.033Z,17.77
2018-10-11T12:46:48.729Z,18.33
2018-10-11T12:49:18.565Z,18.00
2018-10-11T12:51:48.641Z,21.53
2018-10-11T12:54:19.204Z,17.40
2018-10-11T12:56:48.268Z,20.13
2018-10-11T12:59:18.421Z,20.37
2018-10-11T13:01:47.265Z,20.80
2018-10-11T13:04:16.586Z,17.47
2018-10-11T13:06:45.260Z,18.70
2018-10-11T13:09:14.323Z,17.30
2018-10-11T13:11:43.282Z,18.33
2018-10-11T13:14:12.080Z,17.17
2018-10-11T13:16:41.657Z,18.20
2018-10-11T13:19:11.521Z,16.73
2018-10-11T13:21:40.238Z,17.27
2018-10-11T13:24:08.916Z,18.43
2018-10-11T13:26:37.574Z,19.03
2018-10-11T13:29:06.297Z,18.50
2018-10-11T13:31:34.972Z,17.70
2018-10-11T13:34:03.695Z,17.93
2018-10-11T13:36:32.385Z,16.07
2018-10-11T13:39:01.605Z,19.13
2018-10-11T13:41:30.447Z,17.70
2018-10-11T13:43:59.190Z,19.10
2018-10-11T13:46:27.866Z,17.53
2018-10-11T13:48:56.667Z,16.50
2018-10-11T13:51:25.661Z,17.87
2018-10-11T13:53:58.398Z,20.77
2018-10-11T13:56:23.411Z,18.63
2018-10-11T13:58:52.794Z,17.70
2018-10-11T14:01:21.883Z,16.67
2018-10-11T14:03:50.546Z,17.93
2018-10-11T14:06:19.926Z,17.73
2018-10-11T14:08:48.621Z,18.37
2018-10-11T14:11:17.290Z,17.43
2018-10-11T14:13:45.911Z,18.10
2018-10-11T14:16:14.623Z,18.20
2018-10-11T14:18:43.455Z,18.73
2018-10-11T14:21:12.756Z,16.87
2018-10-11T14:23:41.538Z,17.87
2018-10-11T14:26:10.182Z,17.50
2018-10-11T14:28:39.155Z,19.63
2018-10-11T14:31:07.823Z,17.60
2018-10-11T14:33:36.692Z,18.50
2018-10-11T14:36:05.861Z,19.13
2018-10-11T14:38:34.608Z,19.07
2018-10-11T14:41:04.111Z,17.07
2018-10-11T14:43:33.082Z,18.50
2018-10-11T14:46:02.156Z,18.97
2018-10-11T14:48:31.629Z,17.30
2018-10-11T14:51:01.492Z,22.13
2018-10-11T14:53:31.125Z,16.77
2018-10-11T14:56:00.258Z,17.30
2018-10-11T14:58:29.010Z,18.03
2018-10-11T15:00:59.497Z,17.67
2018-10-11T15:03:28.692Z,17.97
2018-10-11T15:05:57.948Z,18.77
2018-10-11T15:08:26.923Z,19.50
2018-10-11T15:10:55.608Z,18.00
2018-10-11T15:13:24.993Z,18.13
2018-10-11T15:15:53.881Z,20.77
2018-10-11T15:18:23.150Z,18.83
2018-10-11T15:20:51.939Z,18.27
2018-10-11T15:23:20.865Z,18.67
2018-10-11T15:25:49.625Z,21.20
2018-10-11T15:28:19.627Z,16.77
2018-10-11T15:30:48.306Z,18.80
2018-10-11T15:33:17.221Z,16.83
2018-10-11T15:35:45.893Z,20.50
2018-10-11T15:38:14.626Z,16.23
2018-10-11T15:40:43.308Z,19.50
2018-10-11T15:43:11.963Z,22.63
2018-10-11T15:45:40.939Z,19.13
2018-10-11T15:48:09.619Z,19.60
2018-10-11T15:50:38.292Z,19.10
2018-10-11T15:53:07.178Z,20.30
2018-10-11T15:55:35.960Z,19.97
2018-10-11T15:58:04.836Z,19.80
2018-10-11T16:00:33.516Z,20.80
2018-10-11T16:03:02.217Z,21.10
2018-10-11T16:05:30.846Z,19.43
2018-10-11T16:07:59.633Z,21.03
2018-10-11T16:10:28.360Z,20.87
2018-10-11T16:12:57.484Z,18.70
2018-10-11T16:15:26.220Z,20.50
2018-10-11T16:17:55.029Z,20.20
2018-10-11T16:20:23.799Z,23.87
2018-10-11T16:22:52.540Z,17.97
2018-10-11T16:25:21.232Z,18.17
2018-10-11T16:27:49.957Z,19.83
2018-10-11T16:30:18.662Z,21.87
2018-10-11T16:32:47.735Z,23.03
2018-10-11T16:35:16.499Z,18.97
2018-10-11T16:37:45.290Z,19.83
2018-10-11T16:40:14.214Z,23.97
2018-10-11T16:42:42.997Z,22.90
2018-10-11T16:45:11.696Z,21.80
2018-10-11T16:47:40.990Z,19.80
2018-10-11T16:50:09.835Z,20.17
2018-10-11T16:52:38.543Z,21.20
2018-10-11T16:55:07.282Z,19.50
2018-10-11T16:57:35.924Z,26.30
2018-10-11T17:00:04.987Z,22.07
2018-10-11T17:02:33.771Z,20.43
2018-10-11T17:05:02.503Z,20.33
2018-10-11T17:07:31.261Z,20.80
2018-10-11T17:10:00.131Z,22.33
2018-10-11T17:12:29.128Z,20.60
2018-10-11T17:14:57.876Z,22.93
2018-10-11T17:17:26.774Z,21.97
2018-10-11T17:19:55.711Z,20.53
2018-10-11T17:22:24.647Z,20.87
2018-10-11T17:24:53.391Z,22.93
2018-10-11T17:27:22.205Z,20.40
2018-10-11T17:29:50.994Z,22.60
2018-10-11T17:32:19.938Z,20.70
2018-10-11T17:34:48.596Z,20.73
2018-10-11T17:37:18.184Z,21.27
2018-10-11T17:39:46.919Z,20.00
2018-10-11T17:42:15.663Z,20.73
2018-10-11T17:44:44.272Z,20.60
2018-10-11T17:47:12.955Z,18.77
2018-10-11T17:49:41.709Z,20.80
2018-10-11T17:52:10.421Z,23.37
2018-10-11T17:54:43.395Z,25.63
2018-10-11T17:57:12.241Z,22.33
2018-10-11T17:59:40.893Z,21.83
2018-10-11T18:02:09.947Z,21.13
2018-10-11T18:04:38.662Z,20.27
2018-10-11T18:07:07.946Z,21.50
2018-10-11T18:09:36.820Z,22.10
2018-10-11T18:12:05.984Z,23.30
2018-10-11T18:14:34.815Z,23.97
2018-10-11T18:17:03.663Z,23.40
2018-10-11T18:19:32.417Z,21.80
2018-10-11T18:22:01.179Z,21.73
2018-10-11T18:24:30.102Z,23.50
2018-10-11T18:26:59.911Z,21.60
2018-10-11T18:29:28.636Z,23.03
2018-10-11T18:31:57.509Z,23.13
2018-10-11T18:34:26.502Z,23.10
2018-10-11T18:36:55.351Z,23.00
2018-10-11T18:39:24.089Z,21.47
2018-10-11T18:41:52.847Z,23.00
2018-10-11T18:44:21.667Z,22.47
2018-10-11T18:46:50.352Z,21.60
2018-10-11T18:49:19.040Z,25.43
2018-10-11T18:51:47.907Z,21.33
2018-10-11T18:54:16.606Z,22.17
2018-10-11T18:56:45.279Z,23.80
2018-10-11T18:59:14.019Z,22.73
2018-10-11T19:01:42.955Z,22.10
2018-10-11T19:04:11.776Z,23.10
2018-10-11T19:06:40.569Z,21.60
2018-10-11T19:09:09.418Z,21.13
2018-10-11T19:11:38.406Z,24.20
2018-10-11T19:14:07.083Z,20.70
2018-10-11T19:16:35.896Z,22.37
2018-10-11T19:19:04.787Z,20.90
2018-10-11T19:21:33.471Z,22.77
2018-10-11T19:24:02.189Z,21.07
2018-10-11T19:26:30.873Z,21.63
2018-10-11T19:28:59.563Z,22.10
2018-10-11T19:31:28.295Z,23.07
2018-10-11T19:33:56.936Z,24.37
2018-10-11T19:36:25.690Z,24.87
2018-10-11T19:38:54.408Z,24.87
2018-10-11T19:41:23.148Z,24.33
2018-10-11T19:43:51.824Z,23.80
2018-10-11T19:46:20.522Z,31.93
2018-10-11T19:48:49.768Z,23.03
2018-10-11T19:51:18.423Z,23.80
2018-10-11T19:53:47.106Z,23.23
2018-10-11T19:56:15.881Z,23.70
2018-10-11T19:58:44.457Z,23.33
2018-10-11T20:01:13.364Z,21.37
2018-10-11T20:03:42.044Z,23.27
2018-10-11T20:06:10.811Z,22.67
2018-10-11T20:08:39.803Z,23.10
2018-10-11T20:11:08.380Z,23.33
2018-10-11T20:13:39.056Z,22.00
2018-10-11T20:16:07.921Z,22.20
2018-10-11T20:18:37.077Z,24.07
2018-10-11T20:21:05.805Z,23.37
2018-10-11T20:23:34.549Z,25.43
2018-10-11T20:26:03.322Z,23.30
2018-10-11T20:28:32.088Z,24.27
2018-10-11T20:31:00.767Z,22.47
2018-10-11T20:33:30.728Z,24.80
2018-10-11T20:36:02.851Z,25.37
2018-10-11T20:38:31.533Z,23.40
2018-10-11T20:41:00.329Z,23.37
2018-10-11T20:43:29.121Z,23.90
2018-10-11T20:45:57.781Z,24.33
2018-10-11T20:48:26.621Z,23.67
2018-10-11T20:50:55.381Z,24.10
2018-10-11T20:53:24.112Z,23.77
2018-10-11T20:55:52.796Z,23.73
2018-10-11T20:58:21.677Z,27.63
2018-10-11T21:00:50.477Z,24.30
2018-10-11T21:03:19.185Z,24.73
2018-10-11T21:05:47.906Z,23.50
2018-10-11T21:08:16.555Z,24.50
2018-10-11T21:10:45.200Z,24.27
2018-10-11T21:13:13.959Z,23.57
2018-10-11T21:15:42.647Z,23.93
2018-10-11T21:18:11.289Z,31.47
2018-10-11T21:20:40.037Z,24.20
2018-10-11T21:23:08.757Z,25.33
2018-10-11T21:25:37.480Z,24.50
2018-10-11T21:28:06.513Z,27.07
2018-10-11T21:30:35.348Z,24.60
2018-10-11T21:33:03.999Z,24.33
2018-10-11T21:35:32.835Z,23.67
2018-10-11T21:38:01.488Z,23.87
2018-10-11T21:40:30.175Z,23.40
2018-10-11T21:42:58.895Z,24.40
2018-10-11T21:45:27.513Z,24.80
2018-10-11T21:47:56.167Z,28.53
2018-10-11T21:50:24.836Z,24.60
2018-10-11T21:52:53.468Z,25.07
2018-10-11T21:55:22.139Z,25.30
2018-10-11T21:57:50.776Z,25.07
2018-10-11T22:00:19.907Z,26.43
2018-10-11T22:02:48.596Z,25.17
2018-10-11T22:05:17.264Z,25.10
2018-10-11T22:07:45.964Z,24.10
2018-10-11T22:10:14.710Z,25.37
2018-10-11T22:12:43.384Z,26.67
2018-10-11T22:15:12.118Z,24.93
2018-10-11T22:17:40.711Z,25.57
2018-10-11T22:20:09.341Z,25.57
2018-10-11T22:22:38.617Z,27.03
2018-10-11T22:25:07.247Z,26.00
2018-10-11T22:27:35.887Z,26.37
2018-10-11T22:30:04.751Z,26.07
2018-10-11T22:32:33.328Z,25.50
2018-10-11T22:35:02.085Z,23.80
2018-10-11T22:37:30.717Z,25.90
2018-10-11T22:39:59.445Z,24.33
2018-10-11T22:42:28.136Z,24.40
2018-10-11T22:44:56.786Z,28.57
2018-10-11T22:47:25.508Z,26.07
2018-10-11T22:49:54.197Z,25.50
2018-10-11T22:52:22.860Z,26.70
2018-10-11T22:54:51.535Z,25.70
2018-10-11T22:57:20.172Z,24.20
2018-10-11T22:59:48.827Z,25.50
2018-10-11T23:02:17.486Z,27.50
2018-10-11T23:04:46.296Z,24.23
2018-10-11T23:07:14.967Z,27.67
2018-10-11T23:09:43.620Z,25.30
2018-10-11T23:12:12.274Z,26.00
2018-10-11T23:14:41.104Z,25.73
2018-10-11T23:17:09.832Z,24.70
2018-10-11T23:19:38.479Z,26.50
2018-10-11T23:22:07.924Z,27.43
2018-10-11T23:24:36.587Z,25.17
2018-10-11T23:27:05.299Z,25.50
2018-10-11T23:29:33.947Z,23.83
2018-10-11T23:32:02.619Z,27.67
2018-10-11T23:34:31.303Z,26.40
2018-10-11T23:36:59.934Z,25.83
2018-10-11T23:39:28.554Z,27.13
2018-10-11T23:41:57.797Z,26.40
2018-10-11T23:44:26.517Z,25.47
2018-10-11T23:46:55.143Z,26.23
2018-10-11T23:49:23.937Z,25.53
2018-10-11T23:51:52.552Z,25.97
2018-10-11T23:54:21.232Z,27.33
2018-10-11T23:56:49.923Z,27.33
2018-10-11T23:59:18.583Z,26.00
